sensor_id;sensor_type;location;lat;lon;timestamp;pressure;altitude;pressure_sealevel;temperature;humidity
12182;BME280;6154;51.550;12.138;2022-08-19T00:00:03;99864.34;;;25.63;69.07
12182;BME280;6154;51.550;12.138;2022-08-19T00:02:32;99867.88;;;25.64;69.79
12182;BME280;6154;51.550;12.138;2022-08-19T00:05:00;99874.03;;;25.51;71.93
12182;BME280;6154;51.550;12.138;2022-08-19T00:07:29;99864.13;;;25.65;68.21
12182;BME280;6154;51.550;12.138;2022-08-19T00:09:57;99870.03;;;25.68;67.19
12182;BME280;6154;51.550;12.138;2022-08-19T00:12:25;99871.25;;;25.66;68.53
12182;BME280;6154;51.550;12.138;2022-08-19T00:14:54;99878.00;;;25.70;66.94
12182;BME280;6154;51.550;12.138;2022-08-19T00:17:22;99881.91;;;25.67;69.08
12182;BME280;6154;51.550;12.138;2022-08-19T00:19:50;99885.91;;;25.71;66.73
12182;BME280;6154;51.550;12.138;2022-08-19T00:22:18;99886.22;;;25.62;69.76
12182;BME280;6154;51.550;12.138;2022-08-19T00:24:46;99891.84;;;25.60;70.12
12182;BME280;6154;51.550;12.138;2022-08-19T00:27:16;99898.50;;;25.58;71.16
12182;BME280;6154;51.550;12.138;2022-08-19T00:29:54;99897.66;;;25.57;68.28
12182;BME280;6154;51.550;12.138;2022-08-19T00:32:22;99894.56;;;25.60;68.10
12182;BME280;6154;51.550;12.138;2022-08-19T00:34:53;99892.81;;;25.52;68.95
12182;BME280;6154;51.550;12.138;2022-08-19T00:37:22;99895.72;;;25.51;69.08
12182;BME280;6154;51.550;12.138;2022-08-19T00:39:50;99890.31;;;25.51;68.58
12182;BME280;6154;51.550;12.138;2022-08-19T00:42:20;99902.69;;;25.39;71.50
12182;BME280;6154;51.550;12.138;2022-08-19T00:44:49;99892.25;;;25.36;71.82
12182;BME280;6154;51.550;12.138;2022-08-19T00:47:19;99896.47;;;25.45;68.50
12182;BME280;6154;51.550;12.138;2022-08-19T00:49:52;99899.38;;;25.43;69.69
12182;BME280;6154;51.550;12.138;2022-08-19T00:52:24;99897.09;;;25.40;69.86
12182;BME280;6154;51.550;12.138;2022-08-19T00:54:54;99900.75;;;25.33;72.16
12182;BME280;6154;51.550;12.138;2022-08-19T00:57:27;99900.56;;;25.34;71.00
12182;BME280;6154;51.550;12.138;2022-08-19T00:59:57;99910.00;;;25.38;70.16
12182;BME280;6154;51.550;12.138;2022-08-19T01:02:32;99920.34;;;25.35;69.64
12182;BME280;6154;51.550;12.138;2022-08-19T01:05:03;99912.31;;;25.41;68.99
12182;BME280;6154;51.550;12.138;2022-08-19T01:07:32;99918.56;;;25.42;68.88
12182;BME280;6154;51.550;12.138;2022-08-19T01:10:06;99918.75;;;25.40;70.08
12182;BME280;6154;51.550;12.138;2022-08-19T01:12:35;99912.38;;;25.48;67.82
12182;BME280;6154;51.550;12.138;2022-08-19T01:15:06;99910.75;;;25.32;72.11
12182;BME280;6154;51.550;12.138;2022-08-19T01:17:38;99911.38;;;25.34;71.45
12182;BME280;6154;51.550;12.138;2022-08-19T01:20:11;99906.81;;;25.35;72.08
12182;BME280;6154;51.550;12.138;2022-08-19T01:22:45;99898.88;;;25.33;72.82
12182;BME280;6154;51.550;12.138;2022-08-19T01:25:16;99880.50;;;25.29;74.10
12182;BME280;6154;51.550;12.138;2022-08-19T01:27:47;99872.09;;;25.23;73.85
12182;BME280;6154;51.550;12.138;2022-08-19T01:30:22;99862.94;;;25.03;78.30
12182;BME280;6154;51.550;12.138;2022-08-19T01:32:51;99854.13;;;25.01;78.62
12182;BME280;6154;51.550;12.138;2022-08-19T01:35:20;99838.47;;;24.97;79.48
12182;BME280;6154;51.550;12.138;2022-08-19T01:37:53;99830.66;;;24.87;81.04
12182;BME280;6154;51.550;12.138;2022-08-19T01:40:26;99812.22;;;24.97;80.06
12182;BME280;6154;51.550;12.138;2022-08-19T01:42:55;99805.06;;;24.89;80.87
12182;BME280;6154;51.550;12.138;2022-08-19T01:45:25;99805.50;;;24.93;78.84
12182;BME280;6154;51.550;12.138;2022-08-19T01:47:55;99813.84;;;24.91;78.32
12182;BME280;6154;51.550;12.138;2022-08-19T01:50:29;99823.97;;;25.04;74.66
12182;BME280;6154;51.550;12.138;2022-08-19T01:53:00;99833.41;;;24.93;77.32
12182;BME280;6154;51.550;12.138;2022-08-19T01:55:37;99841.34;;;25.10;74.77
12182;BME280;6154;51.550;12.138;2022-08-19T01:58:09;99839.88;;;25.07;75.77
12182;BME280;6154;51.550;12.138;2022-08-19T02:00:39;99848.44;;;25.11;73.08
12182;BME280;6154;51.550;12.138;2022-08-19T02:03:08;99848.72;;;25.16;72.05
12182;BME280;6154;51.550;12.138;2022-08-19T02:05:38;99861.59;;;25.14;71.93
12182;BME280;6154;51.550;12.138;2022-08-19T02:08:08;99860.00;;;25.19;71.37
12182;BME280;6154;51.550;12.138;2022-08-19T02:10:39;99850.81;;;25.20;71.84
12182;BME280;6154;51.550;12.138;2022-08-19T02:13:08;99847.69;;;25.17;73.36
12182;BME280;6154;51.550;12.138;2022-08-19T02:15:37;99848.63;;;25.09;74.91
12182;BME280;6154;51.550;12.138;2022-08-19T02:18:06;99845.81;;;25.17;72.35
12182;BME280;6154;51.550;12.138;2022-08-19T02:20:35;99829.88;;;25.08;73.68
12182;BME280;6154;51.550;12.138;2022-08-19T02:23:05;99825.81;;;25.18;72.19
12182;BME280;6154;51.550;12.138;2022-08-19T02:25:44;99822.31;;;25.03;75.43
12182;BME280;6154;51.550;12.138;2022-08-19T02:28:13;99813.88;;;25.13;73.46
12182;BME280;6154;51.550;12.138;2022-08-19T02:30:45;99806.56;;;25.13;74.00
12182;BME280;6154;51.550;12.138;2022-08-19T02:33:14;99799.47;;;25.12;73.89
12182;BME280;6154;51.550;12.138;2022-08-19T02:35:42;99798.56;;;25.05;76.12
12182;BME280;6154;51.550;12.138;2022-08-19T02:38:10;99792.72;;;25.02;77.70
12182;BME280;6154;51.550;12.138;2022-08-19T02:40:56;99781.00;;;25.01;76.11
12182;BME280;6154;51.550;12.138;2022-08-19T02:43:26;99763.84;;;24.94;80.52
12182;BME280;6154;51.550;12.138;2022-08-19T02:45:59;99754.81;;;25.02;75.72
12182;BME280;6154;51.550;12.138;2022-08-19T02:48:27;99758.63;;;25.07;74.79
12182;BME280;6154;51.550;12.138;2022-08-19T02:50:55;99755.91;;;25.07;75.26
12182;BME280;6154;51.550;12.138;2022-08-19T02:53:26;99759.25;;;25.09;74.60
12182;BME280;6154;51.550;12.138;2022-08-19T02:55:56;99763.63;;;25.10;74.83
12182;BME280;6154;51.550;12.138;2022-08-19T02:58:24;99769.06;;;25.10;75.90
12182;BME280;6154;51.550;12.138;2022-08-19T03:00:55;99786.91;;;25.05;77.09
12182;BME280;6154;51.550;12.138;2022-08-19T03:03:23;99791.00;;;25.01;79.16
12182;BME280;6154;51.550;12.138;2022-08-19T03:06:01;99799.47;;;25.12;75.39
12182;BME280;6154;51.550;12.138;2022-08-19T03:08:30;99803.44;;;25.10;77.14
12182;BME280;6154;51.550;12.138;2022-08-19T03:10:59;99808.13;;;25.22;73.66
12182;BME280;6154;51.550;12.138;2022-08-19T03:13:27;99814.50;;;25.15;76.47
12182;BME280;6154;51.550;12.138;2022-08-19T03:15:55;99818.06;;;25.15;75.01
12182;BME280;6154;51.550;12.138;2022-08-19T03:18:24;99819.34;;;25.19;74.18
12182;BME280;6154;51.550;12.138;2022-08-19T03:20:53;99825.00;;;25.25;73.33
12182;BME280;6154;51.550;12.138;2022-08-19T03:23:22;99827.28;;;25.21;74.02
12182;BME280;6154;51.550;12.138;2022-08-19T03:25:52;99833.59;;;25.28;73.10
12182;BME280;6154;51.550;12.138;2022-08-19T03:28:42;99833.22;;;25.31;72.76
12182;BME280;6154;51.550;12.138;2022-08-19T03:31:19;99838.12;;;25.21;75.57
12182;BME280;6154;51.550;12.138;2022-08-19T03:34:08;99840.69;;;25.08;78.70
12182;BME280;6154;51.550;12.138;2022-08-19T03:36:39;99848.75;;;25.22;73.82
12182;BME280;6154;51.550;12.138;2022-08-19T03:39:07;99848.94;;;25.21;74.44
12182;BME280;6154;51.550;12.138;2022-08-19T03:41:39;99854.66;;;25.26;73.53
12182;BME280;6154;51.550;12.138;2022-08-19T03:44:14;99857.16;;;25.28;73.21
12182;BME280;6154;51.550;12.138;2022-08-19T03:46:46;99853.94;;;25.17;76.37
12182;BME280;6154;51.550;12.138;2022-08-19T03:49:15;99867.78;;;25.29;72.38
12182;BME280;6154;51.550;12.138;2022-08-19T03:51:46;99877.00;;;25.13;76.88
12182;BME280;6154;51.550;12.138;2022-08-19T03:54:19;99893.22;;;25.28;73.32
12182;BME280;6154;51.550;12.138;2022-08-19T03:56:49;99900.09;;;25.31;73.08
12182;BME280;6154;51.550;12.138;2022-08-19T03:59:21;99910.19;;;25.37;72.16
12182;BME280;6154;51.550;12.138;2022-08-19T04:01:53;99911.69;;;25.25;74.35
12182;BME280;6154;51.550;12.138;2022-08-19T04:04:22;99913.22;;;25.27;74.50
12182;BME280;6154;51.550;12.138;2022-08-19T04:06:50;99907.19;;;25.32;73.07
12182;BME280;6154;51.550;12.138;2022-08-19T04:09:19;99901.34;;;25.28;73.81
12182;BME280;6154;51.550;12.138;2022-08-19T04:11:51;99901.34;;;25.28;74.68
12182;BME280;6154;51.550;12.138;2022-08-19T04:14:24;99912.63;;;25.32;74.53
12182;BME280;6154;51.550;12.138;2022-08-19T04:16:52;99924.94;;;25.34;75.06
12182;BME280;6154;51.550;12.138;2022-08-19T04:19:20;99925.22;;;25.39;72.44
12182;BME280;6154;51.550;12.138;2022-08-19T04:21:51;99918.31;;;25.37;74.06
12182;BME280;6154;51.550;12.138;2022-08-19T04:24:20;99918.16;;;25.45;72.76
12182;BME280;6154;51.550;12.138;2022-08-19T04:26:49;99902.56;;;25.47;72.73
12182;BME280;6154;51.550;12.138;2022-08-19T04:29:19;99910.50;;;25.48;72.37
12182;BME280;6154;51.550;12.138;2022-08-19T04:31:50;99917.00;;;25.33;74.52
12182;BME280;6154;51.550;12.138;2022-08-19T04:34:21;99911.47;;;25.41;74.26
12182;BME280;6154;51.550;12.138;2022-08-19T04:36:52;99916.87;;;25.41;74.22
12182;BME280;6154;51.550;12.138;2022-08-19T04:39:23;99921.53;;;25.47;72.94
12182;BME280;6154;51.550;12.138;2022-08-19T04:42:12;99921.53;;;25.47;72.95
12182;BME280;6154;51.550;12.138;2022-08-19T04:44:58;99915.22;;;25.40;73.38
12182;BME280;6154;51.550;12.138;2022-08-19T04:47:28;99911.97;;;25.51;71.63
12182;BME280;6154;51.550;12.138;2022-08-19T04:50:17;99911.22;;;25.36;75.01
12182;BME280;6154;51.550;12.138;2022-08-19T04:52:46;99905.09;;;25.48;72.10
12182;BME280;6154;51.550;12.138;2022-08-19T04:55:14;99909.91;;;25.53;71.77
12182;BME280;6154;51.550;12.138;2022-08-19T04:57:42;99903.22;;;25.49;72.58
12182;BME280;6154;51.550;12.138;2022-08-19T05:00:11;99897.91;;;25.41;73.58
12182;BME280;6154;51.550;12.138;2022-08-19T05:02:40;99904.78;;;25.37;74.93
12182;BME280;6154;51.550;12.138;2022-08-19T05:05:09;99896.38;;;25.32;75.64
12182;BME280;6154;51.550;12.138;2022-08-19T05:07:37;99895.59;;;25.38;75.90
12182;BME280;6154;51.550;12.138;2022-08-19T05:10:07;99891.72;;;25.47;73.62
12182;BME280;6154;51.550;12.138;2022-08-19T05:12:36;99888.56;;;25.43;75.91
12182;BME280;6154;51.550;12.138;2022-08-19T05:15:05;99882.94;;;25.45;75.05
12182;BME280;6154;51.550;12.138;2022-08-19T05:17:35;99883.06;;;25.58;73.09
12182;BME280;6154;51.550;12.138;2022-08-19T05:20:08;99892.88;;;25.59;73.90
12182;BME280;6154;51.550;12.138;2022-08-19T05:22:54;99914.06;;;25.49;74.72
12182;BME280;6154;51.550;12.138;2022-08-19T05:25:23;99913.41;;;25.47;74.25
12182;BME280;6154;51.550;12.138;2022-08-19T05:27:52;99922.50;;;25.39;76.77
12182;BME280;6154;51.550;12.138;2022-08-19T05:30:20;99918.25;;;25.51;74.56
12182;BME280;6154;51.550;12.138;2022-08-19T05:33:08;99923.03;;;25.49;74.88
12182;BME280;6154;51.550;12.138;2022-08-19T05:35:40;99927.41;;;25.50;73.97
12182;BME280;6154;51.550;12.138;2022-08-19T05:38:08;99926.06;;;25.40;76.30
12182;BME280;6154;51.550;12.138;2022-08-19T05:40:38;99919.88;;;25.46;73.93
12182;BME280;6154;51.550;12.138;2022-08-19T05:43:07;99925.78;;;25.35;76.39
12182;BME280;6154;51.550;12.138;2022-08-19T05:45:39;99926.44;;;25.15;78.48
12182;BME280;6154;51.550;12.138;2022-08-19T05:48:08;99920.62;;;25.40;75.08
12182;BME280;6154;51.550;12.138;2022-08-19T05:50:40;99924.37;;;25.39;76.41
12182;BME280;6154;51.550;12.138;2022-08-19T05:53:09;99922.63;;;25.31;76.26
12182;BME280;6154;51.550;12.138;2022-08-19T05:55:37;99931.06;;;25.43;73.85
12182;BME280;6154;51.550;12.138;2022-08-19T05:58:06;99932.50;;;25.39;74.85
12182;BME280;6154;51.550;12.138;2022-08-19T06:00:34;99938.16;;;25.22;77.15
12182;BME280;6154;51.550;12.138;2022-08-19T06:03:03;99944.44;;;25.44;73.68
12182;BME280;6154;51.550;12.138;2022-08-19T06:05:40;99958.44;;;25.27;75.63
12182;BME280;6154;51.550;12.138;2022-08-19T06:08:19;99954.75;;;25.34;74.03
12182;BME280;6154;51.550;12.138;2022-08-19T06:11:19;99954.28;;;25.31;74.70
12182;BME280;6154;51.550;12.138;2022-08-19T06:13:50;99958.97;;;25.37;76.28
12182;BME280;6154;51.550;12.138;2022-08-19T06:16:27;99964.22;;;25.45;73.45
12182;BME280;6154;51.550;12.138;2022-08-19T06:18:56;99960.69;;;25.44;73.26
12182;BME280;6154;51.550;12.138;2022-08-19T06:21:27;99959.12;;;25.35;74.06
12182;BME280;6154;51.550;12.138;2022-08-19T06:23:56;99964.53;;;25.35;74.81
12182;BME280;6154;51.550;12.138;2022-08-19T06:26:25;99971.09;;;25.41;74.14
12182;BME280;6154;51.550;12.138;2022-08-19T06:28:54;99972.13;;;25.40;74.06
12182;BME280;6154;51.550;12.138;2022-08-19T06:31:24;99974.72;;;25.48;72.87
12182;BME280;6154;51.550;12.138;2022-08-19T06:33:53;99984.97;;;25.52;72.51
12182;BME280;6154;51.550;12.138;2022-08-19T06:36:24;99979.31;;;25.33;74.59
12182;BME280;6154;51.550;12.138;2022-08-19T06:38:55;99988.78;;;25.37;75.06
12182;BME280;6154;51.550;12.138;2022-08-19T06:41:24;99987.78;;;25.44;74.01
12182;BME280;6154;51.550;12.138;2022-08-19T06:43:53;99988.56;;;25.38;73.89
12182;BME280;6154;51.550;12.138;2022-08-19T06:46:22;99985.28;;;25.43;74.07
12182;BME280;6154;51.550;12.138;2022-08-19T06:48:51;99980.25;;;25.40;74.54
12182;BME280;6154;51.550;12.138;2022-08-19T06:51:21;99982.06;;;25.54;72.52
12182;BME280;6154;51.550;12.138;2022-08-19T06:53:53;99992.53;;;25.57;72.15
12182;BME280;6154;51.550;12.138;2022-08-19T06:56:25;99996.09;;;25.58;72.90
12182;BME280;6154;51.550;12.138;2022-08-19T06:58:57;100004.94;;;25.66;71.91
12182;BME280;6154;51.550;12.138;2022-08-19T07:01:26;100013.81;;;25.60;72.52
12182;BME280;6154;51.550;12.138;2022-08-19T07:03:54;100015.91;;;25.58;72.42
12182;BME280;6154;51.550;12.138;2022-08-19T07:06:24;100027.28;;;25.68;70.76
12182;BME280;6154;51.550;12.138;2022-08-19T07:09:11;100024.47;;;25.62;71.33
12182;BME280;6154;51.550;12.138;2022-08-19T07:11:47;100035.97;;;25.64;71.73
12182;BME280;6154;51.550;12.138;2022-08-19T07:14:19;100033.44;;;25.62;72.29
12182;BME280;6154;51.550;12.138;2022-08-19T07:16:49;100038.88;;;25.62;71.99
12182;BME280;6154;51.550;12.138;2022-08-19T07:19:19;100049.31;;;25.65;71.56
12182;BME280;6154;51.550;12.138;2022-08-19T07:21:49;100055.50;;;25.74;70.27
12182;BME280;6154;51.550;12.138;2022-08-19T07:24:19;100057.44;;;25.80;70.05
12182;BME280;6154;51.550;12.138;2022-08-19T07:26:50;100050.34;;;25.79;69.66
12182;BME280;6154;51.550;12.138;2022-08-19T07:29:19;100048.03;;;25.76;70.51
12182;BME280;6154;51.550;12.138;2022-08-19T07:31:51;100054.09;;;25.78;69.74
12182;BME280;6154;51.550;12.138;2022-08-19T07:34:19;100063.78;;;25.87;69.00
12182;BME280;6154;51.550;12.138;2022-08-19T07:36:47;100071.88;;;25.66;71.19
12182;BME280;6154;51.550;12.138;2022-08-19T07:39:19;100074.87;;;25.71;69.98
12182;BME280;6154;51.550;12.138;2022-08-19T07:41:49;100078.41;;;25.71;69.97
12182;BME280;6154;51.550;12.138;2022-08-19T07:44:19;100076.91;;;25.69;70.16
12182;BME280;6154;51.550;12.138;2022-08-19T07:46:49;100076.34;;;25.73;70.07
12182;BME280;6154;51.550;12.138;2022-08-19T07:49:19;100080.28;;;25.71;70.33
12182;BME280;6154;51.550;12.138;2022-08-19T07:51:54;100083.28;;;25.61;71.54
12182;BME280;6154;51.550;12.138;2022-08-19T07:54:24;100088.59;;;25.69;70.24
12182;BME280;6154;51.550;12.138;2022-08-19T07:56:55;100091.22;;;25.63;70.26
12182;BME280;6154;51.550;12.138;2022-08-19T07:59:24;100088.88;;;25.60;70.33
12182;BME280;6154;51.550;12.138;2022-08-19T08:01:52;100098.31;;;25.78;68.82
12182;BME280;6154;51.550;12.138;2022-08-19T08:04:21;100090.94;;;25.72;69.29
12182;BME280;6154;51.550;12.138;2022-08-19T08:07:07;100096.66;;;25.77;69.04
12182;BME280;6154;51.550;12.138;2022-08-19T08:09:57;100093.84;;;25.71;69.20
12182;BME280;6154;51.550;12.138;2022-08-19T08:12:33;100094.41;;;25.66;69.10
12182;BME280;6154;51.550;12.138;2022-08-19T08:15:06;100102.91;;;25.63;69.19
12182;BME280;6154;51.550;12.138;2022-08-19T08:17:38;100094.63;;;25.35;71.45
12182;BME280;6154;51.550;12.138;2022-08-19T08:20:18;100099.94;;;25.43;70.22
12182;BME280;6154;51.550;12.138;2022-08-19T08:22:47;100104.72;;;25.41;69.90
12182;BME280;6154;51.550;12.138;2022-08-19T08:25:34;100112.75;;;25.35;69.73
12182;BME280;6154;51.550;12.138;2022-08-19T08:28:04;100109.94;;;25.43;68.99
12182;BME280;6154;51.550;12.138;2022-08-19T08:30:37;100110.12;;;25.41;69.34
12182;BME280;6154;51.550;12.138;2022-08-19T08:33:11;100113.69;;;25.42;68.79
12182;BME280;6154;51.550;12.138;2022-08-19T08:35:40;100099.94;;;25.43;68.58
12182;BME280;6154;51.550;12.138;2022-08-19T08:38:09;100096.88;;;25.32;69.77
12182;BME280;6154;51.550;12.138;2022-08-19T08:40:43;100097.25;;;25.29;69.87
12182;BME280;6154;51.550;12.138;2022-08-19T08:43:21;100109.88;;;25.36;69.58
12182;BME280;6154;51.550;12.138;2022-08-19T08:45:53;100104.34;;;25.30;71.02
12182;BME280;6154;51.550;12.138;2022-08-19T08:48:34;100110.69;;;25.51;68.79
12182;BME280;6154;51.550;12.138;2022-08-19T08:51:05;100112.28;;;25.46;69.88
12182;BME280;6154;51.550;12.138;2022-08-19T08:53:36;100122.94;;;25.47;69.37
12182;BME280;6154;51.550;12.138;2022-08-19T08:56:09;100121.81;;;25.57;68.53
12182;BME280;6154;51.550;12.138;2022-08-19T08:58:51;100127.69;;;25.60;68.44
12182;BME280;6154;51.550;12.138;2022-08-19T09:01:20;100117.78;;;25.67;68.18
12182;BME280;6154;51.550;12.138;2022-08-19T09:03:49;100125.44;;;25.78;67.71
12182;BME280;6154;51.550;12.138;2022-08-19T09:06:24;100132.44;;;25.73;68.46
12182;BME280;6154;51.550;12.138;2022-08-19T09:09:00;100127.69;;;25.60;68.74
12182;BME280;6154;51.550;12.138;2022-08-19T09:11:47;100126.22;;;25.94;67.66
12182;BME280;6154;51.550;12.138;2022-08-19T09:14:32;100133.69;;;26.06;67.02
12182;BME280;6154;51.550;12.138;2022-08-19T09:17:20;100135.16;;;26.09;66.63
12182;BME280;6154;51.550;12.138;2022-08-19T09:20:00;100136.47;;;26.13;66.38
12182;BME280;6154;51.550;12.138;2022-08-19T09:22:35;100138.00;;;26.22;66.02
12182;BME280;6154;51.550;12.138;2022-08-19T09:25:05;100139.13;;;26.06;66.26
12182;BME280;6154;51.550;12.138;2022-08-19T09:27:33;100139.97;;;26.07;66.26
12182;BME280;6154;51.550;12.138;2022-08-19T09:30:14;100137.56;;;25.97;66.14
12182;BME280;6154;51.550;12.138;2022-08-19T09:32:42;100137.16;;;26.00;66.56
12182;BME280;6154;51.550;12.138;2022-08-19T09:35:13;100133.59;;;26.00;66.32
12182;BME280;6154;51.550;12.138;2022-08-19T09:37:42;100134.91;;;26.04;65.97
12182;BME280;6154;51.550;12.138;2022-08-19T09:40:11;100138.28;;;26.06;66.02
12182;BME280;6154;51.550;12.138;2022-08-19T09:42:42;100132.37;;;26.02;65.79
12182;BME280;6154;51.550;12.138;2022-08-19T09:45:19;100130.12;;;26.06;65.97
12182;BME280;6154;51.550;12.138;2022-08-19T09:47:50;100129.88;;;26.01;65.99
12182;BME280;6154;51.550;12.138;2022-08-19T09:50:22;100123.69;;;26.07;65.57
12182;BME280;6154;51.550;12.138;2022-08-19T09:52:51;100131.00;;;26.28;65.13
12182;BME280;6154;51.550;12.138;2022-08-19T09:55:24;100133.75;;;26.13;65.43
12182;BME280;6154;51.550;12.138;2022-08-19T09:58:01;100150.94;;;26.20;65.17
12182;BME280;6154;51.550;12.138;2022-08-19T10:00:32;100147.84;;;26.23;64.81
12182;BME280;6154;51.550;12.138;2022-08-19T10:03:00;100143.53;;;26.29;64.50
12182;BME280;6154;51.550;12.138;2022-08-19T10:05:29;100138.13;;;26.35;64.81
12182;BME280;6154;51.550;12.138;2022-08-19T10:08:18;100131.53;;;26.38;64.44
12182;BME280;6154;51.550;12.138;2022-08-19T10:10:53;100122.72;;;26.36;64.03
12182;BME280;6154;51.550;12.138;2022-08-19T10:13:24;100128.72;;;26.10;64.33
12182;BME280;6154;51.550;12.138;2022-08-19T10:15:55;100136.41;;;26.28;64.59
12182;BME280;6154;51.550;12.138;2022-08-19T10:18:24;100121.72;;;26.22;63.74
12182;BME280;6154;51.550;12.138;2022-08-19T10:21:03;100122.44;;;26.46;63.61
12182;BME280;6154;51.550;12.138;2022-08-19T10:23:35;100129.22;;;26.20;63.08
12182;BME280;6154;51.550;12.138;2022-08-19T10:26:04;100131.66;;;26.51;63.34
12182;BME280;6154;51.550;12.138;2022-08-19T10:28:33;100126.41;;;26.28;63.37
12182;BME280;6154;51.550;12.138;2022-08-19T10:31:08;100126.28;;;26.58;63.03
12182;BME280;6154;51.550;12.138;2022-08-19T10:33:37;100126.75;;;26.40;62.99
12182;BME280;6154;51.550;12.138;2022-08-19T10:36:22;100132.47;;;26.30;62.95
12182;BME280;6154;51.550;12.138;2022-08-19T10:38:52;100129.97;;;26.50;63.35
12182;BME280;6154;51.550;12.138;2022-08-19T10:41:26;100122.34;;;26.39;63.12
12182;BME280;6154;51.550;12.138;2022-08-19T10:43:56;100128.13;;;26.79;62.91
12182;BME280;6154;51.550;12.138;2022-08-19T10:46:33;100129.53;;;26.96;62.65
12182;BME280;6154;51.550;12.138;2022-08-19T10:49:04;100124.53;;;27.28;61.13
12182;BME280;6154;51.550;12.138;2022-08-19T10:51:32;100121.22;;;27.39;61.53
12182;BME280;6154;51.550;12.138;2022-08-19T10:54:19;100118.78;;;27.50;61.86
12182;BME280;6154;51.550;12.138;2022-08-19T10:56:59;100124.44;;;27.56;61.17
12182;BME280;6154;51.550;12.138;2022-08-19T10:59:28;100121.50;;;27.50;60.58
12182;BME280;6154;51.550;12.138;2022-08-19T11:02:05;100111.59;;;27.36;60.30
12182;BME280;6154;51.550;12.138;2022-08-19T11:04:33;100114.87;;;27.25;59.94
12182;BME280;6154;51.550;12.138;2022-08-19T11:07:03;100118.00;;;27.22;60.74
12182;BME280;6154;51.550;12.138;2022-08-19T11:09:37;100128.87;;;27.22;60.60
12182;BME280;6154;51.550;12.138;2022-08-19T11:12:07;100127.31;;;27.06;59.45
12182;BME280;6154;51.550;12.138;2022-08-19T11:14:37;100121.06;;;27.06;61.06
12182;BME280;6154;51.550;12.138;2022-08-19T11:17:06;100119.25;;;27.19;60.64
12182;BME280;6154;51.550;12.138;2022-08-19T11:19:35;100119.66;;;27.16;59.62
12182;BME280;6154;51.550;12.138;2022-08-19T11:22:03;100111.41;;;27.03;59.97
12182;BME280;6154;51.550;12.138;2022-08-19T11:24:31;100107.81;;;27.31;60.52
12182;BME280;6154;51.550;12.138;2022-08-19T11:27:05;100102.63;;;27.42;59.75
12182;BME280;6154;51.550;12.138;2022-08-19T11:29:34;100114.84;;;27.60;58.84
12182;BME280;6154;51.550;12.138;2022-08-19T11:32:04;100112.00;;;27.74;58.46
12182;BME280;6154;51.550;12.138;2022-08-19T11:34:34;100106.44;;;28.02;58.70
12182;BME280;6154;51.550;12.138;2022-08-19T11:37:03;100100.53;;;27.92;58.12
12182;BME280;6154;51.550;12.138;2022-08-19T11:39:34;100109.62;;;28.19;58.53
12182;BME280;6154;51.550;12.138;2022-08-19T11:42:05;100109.66;;;28.46;57.54
12182;BME280;6154;51.550;12.138;2022-08-19T11:44:53;100122.22;;;28.73;57.35
12182;BME280;6154;51.550;12.138;2022-08-19T11:47:22;100125.19;;;28.98;56.93
12182;BME280;6154;51.550;12.138;2022-08-19T11:49:52;100128.72;;;29.12;56.76
12182;BME280;6154;51.550;12.138;2022-08-19T11:52:20;100137.34;;;28.96;55.97
12182;BME280;6154;51.550;12.138;2022-08-19T11:54:48;100144.88;;;28.74;56.53
12182;BME280;6154;51.550;12.138;2022-08-19T11:57:16;100148.44;;;28.74;55.57
12182;BME280;6154;51.550;12.138;2022-08-19T11:59:48;100142.56;;;28.57;55.08
12182;BME280;6154;51.550;12.138;2022-08-19T12:02:17;100142.16;;;28.60;55.19
12182;BME280;6154;51.550;12.138;2022-08-19T12:04:45;100143.62;;;28.70;55.06
12182;BME280;6154;51.550;12.138;2022-08-19T12:07:15;100139.63;;;28.85;55.63
12182;BME280;6154;51.550;12.138;2022-08-19T12:09:43;100130.84;;;28.90;54.49
12182;BME280;6154;51.550;12.138;2022-08-19T12:12:14;100134.41;;;29.10;54.92
12182;BME280;6154;51.550;12.138;2022-08-19T12:14:42;100132.06;;;29.14;54.90
12182;BME280;6154;51.550;12.138;2022-08-19T12:17:11;100139.16;;;29.35;55.05
12182;BME280;6154;51.550;12.138;2022-08-19T12:19:40;100144.78;;;29.66;54.75
12182;BME280;6154;51.550;12.138;2022-08-19T12:22:08;100140.09;;;29.73;54.22
12182;BME280;6154;51.550;12.138;2022-08-19T12:24:37;100152.97;;;29.60;54.07
12182;BME280;6154;51.550;12.138;2022-08-19T12:27:05;100150.47;;;29.58;53.63
12182;BME280;6154;51.550;12.138;2022-08-19T12:29:38;100141.25;;;29.39;54.26
12182;BME280;6154;51.550;12.138;2022-08-19T12:32:08;100129.03;;;29.62;54.03
12182;BME280;6154;51.550;12.138;2022-08-19T12:34:38;100126.91;;;29.64;54.17
12182;BME280;6154;51.550;12.138;2022-08-19T12:37:07;100123.31;;;29.76;53.70
12182;BME280;6154;51.550;12.138;2022-08-19T12:39:38;100114.31;;;29.69;53.66
12182;BME280;6154;51.550;12.138;2022-08-19T12:42:08;100098.47;;;29.33;52.08
12182;BME280;6154;51.550;12.138;2022-08-19T12:44:37;100095.81;;;29.78;53.58
12182;BME280;6154;51.550;12.138;2022-08-19T12:47:09;100096.78;;;29.90;52.85
12182;BME280;6154;51.550;12.138;2022-08-19T12:49:39;100089.50;;;30.16;52.22
12182;BME280;6154;51.550;12.138;2022-08-19T12:52:22;100094.66;;;30.30;52.35
12182;BME280;6154;51.550;12.138;2022-08-19T12:54:54;100092.44;;;30.14;52.52
12182;BME280;6154;51.550;12.138;2022-08-19T12:57:23;100090.00;;;30.38;50.54
12182;BME280;6154;51.550;12.138;2022-08-19T13:00:00;100093.41;;;30.58;51.11
12182;BME280;6154;51.550;12.138;2022-08-19T13:02:31;100083.94;;;30.54;50.03
12182;BME280;6154;51.550;12.138;2022-08-19T13:05:07;100089.22;;;30.80;51.52
12182;BME280;6154;51.550;12.138;2022-08-19T13:07:37;100082.41;;;30.89;51.37
12182;BME280;6154;51.550;12.138;2022-08-19T13:10:10;100090.34;;;30.73;49.61
12182;BME280;6154;51.550;12.138;2022-08-19T13:12:39;100091.72;;;30.82;49.54
12182;BME280;6154;51.550;12.138;2022-08-19T13:15:09;100101.03;;;30.74;49.93
12182;BME280;6154;51.550;12.138;2022-08-19T13:17:38;100094.56;;;31.12;50.81